METAR Data
IDs: Format: Raw Decoded Include TAF

Data at: 0623 UTC 23 Feb 2019

KDZB 230615Z AUTO 12004KT 4SM BR OVC004 12/12 A2982 RMK AO2 T01200117
KDZB 230555Z AUTO 14006KT 5SM BR OVC004 12/12 A2983 RMK AO2 T01210117 10152 20120 401690092
KDZB 230535Z AUTO 15006KT 5SM BR OVC004 12/12 A2984 RMK AO2 T01200115
KDZB 230515Z AUTO 13006KT 5SM BR OVC006 12/12 A2984 RMK AO2 T01220116
KDZB 230455Z AUTO 13005KT 5SM BR OVC006 12/12 A2985 RMK AO2 T01220117
KDZB 230435Z AUTO 13003KT 5SM BR BKN006 OVC009 12/12 A2986 RMK AO2 T01210115
KDZB 230415Z AUTO 13006KT 4SM BR OVC006 12/11 A2986 RMK AO2 T01210114
KDZB 230355Z AUTO 11006KT 7SM OVC006 12/11 A2986 RMK AO2 T01230114
KDZB 230335Z AUTO 12007KT 7SM BKN008 OVC024 12/11 A2987 RMK AO2 T01240114
KDZB 230315Z AUTO 12008KT 7SM SCT008 OVC024 13/12 A2988 RMK AO2 T01260115
KDZB 230255Z AUTO 12006KT 10SM OVC008 13/12 A2988 RMK AO2 T01280116
KDZB 230235Z AUTO 11006KT 10SM OVC008 13/12 A2989 RMK AO2 T01300117
KDZB 230215Z AUTO 11005KT 10SM SCT008 OVC030 13/12 A2989 RMK AO2 T01300118
KDZB 230155Z AUTO 11003KT 10SM OVC030 13/12 A2989 RMK AO2 T01300118
KDZB 230135Z AUTO 12003KT 10SM SCT007 OVC030 13/12 A2988 RMK AO2 T01310118
KDZB 230115Z AUTO 12004KT 10SM OVC007 13/12 A2988 RMK AO2 T01330120
KDZB 230055Z AUTO 12003KT 10SM OVC009 14/12 A2987 RMK AO2 T01370117
KDZB 230035Z AUTO 11003KT 10SM OVC011 14/12 A2986 RMK AO2 T01410117
KDZB 230015Z AUTO 12004KT 10SM SCT011 15/12 A2986 RMK AO2 T01460118
KDZB 222355Z AUTO 10005KT 10SM SCT013 15/12 A2986 RMK AO2 T01530119 10169 20120
KDZB 222335Z AUTO 10006KT 10SM SCT015 16/12 A2986 RMK AO2 T01560118
KDZB 222315Z AUTO 07006KT 10SM BKN015 16/12 A2986 RMK AO2 T01600119
KDZB 222255Z AUTO 07005KT 10SM BKN015 BKN030 16/12 A2987 RMK AO2 T01610117
KDZB 222235Z AUTO 12005KT 10SM SCT015 OVC030 16/12 A2987 RMK AO2 T01630120
KDZB 222215Z AUTO 11003KT 10SM SCT015 OVC030 16/12 A2988 RMK AO2 T01600120
KDZB 222155Z AUTO 09005KT 10SM SCT015 BKN030 16/12 A2988 RMK AO2 T01610118
KDZB 222135Z AUTO 10004KT 10SM SCT017 BKN030 16/12 A2988 RMK AO2 T01620120
KDZB 222115Z AUTO 10004KT 10SM BKN017 OVC030 16/12 A2989 RMK AO2 T01600120
KDZB 222055Z AUTO 06005KT 10SM OVC015 16/12 A2989 RMK AO2 T01590118
KDZB 222035Z AUTO 00000KT 10SM OVC013 15/12 A2989 RMK AO2 T01510117
KDZB 222015Z AUTO 06004KT 10SM OVC011 16/12 A2990 RMK AO2 T01560119
KDZB 221955Z AUTO 07003KT 10SM OVC009 15/12 A2991 RMK AO2 T01460117
KDZB 221935Z AUTO 00000KT 10SM OVC007 14/11 A2993 RMK AO2 T01370114
KDZB 221915Z AUTO 00000KT 10SM OVC007 14/12 A2993 RMK AO2 T01370115
KDZB 221855Z AUTO 13003KT 10SM OVC005 14/12 A2995 RMK AO2 T01360118
KDZB 221835Z AUTO 00000KT 10SM OVC005 13/12 A2995 RMK AO2 T01310121
KDZB 221815Z AUTO 07003KT 10SM OVC005 12/12 A2997 RMK AO2 T01240119
KDZB 221755Z AUTO 07003KT 5SM BR OVC003 12/12 A2997 RMK AO2 T01200116 10120 20098
KDZB 221735Z AUTO 06004KT 4SM BR OVC003 12/12 A2998 RMK AO2 T01170117
KDZB 221715Z AUTO 11004KT 1 3/4SM BR OVC003 12/12 A2998 RMK AO2 T01160116
KDZB 221655Z AUTO 00000KT 3/4SM BR OVC003 11/11 A2999 RMK AO2 T01100110
KDZB 221635Z AUTO 00000KT 1 1/2SM BR OVC003 11/11 A3000 RMK AO2 T01070107
KDZB 221615Z AUTO 00000KT 3/4SM BR OVC003 11/11 A2999 RMK AO2 T01060106
KDZB 221555Z AUTO 08003KT 1/2SM FG OVC003 11/11 A2999 RMK AO2 T01060106
KDZB 221535Z AUTO 08003KT 1/4SM FG OVC003 10/10 A2999 RMK AO2 T01030103
KDZB 221515Z AUTO 00000KT 1/4SM FG OVC003 10/10 A2999 RMK AO2 T01020102
KDZB 221455Z AUTO 00000KT 1/4SM FG OVC003 10/10 A3000 RMK AO2 T01010101
KDZB 221435Z AUTO 00000KT 3/4SM BR OVC003 10/10 A2999 RMK AO2 T01000100
KDZB 221415Z AUTO 00000KT 1/4SM -DZ OVC003 10/10 A2997 RMK AO2 T01000100
KDZB 221355Z AUTO 00000KT 1/4SM FG OVC003 10/10 A2997 RMK AO2 T01000100
KDZB 221335Z AUTO 00000KT 1/2SM FG OVC003 10/10 A2996 RMK AO2 T00990099
KDZB 221315Z AUTO 00000KT 3/4SM BR OVC003 10/10 A2996 RMK AO2 T01000100
KDZB 221255Z AUTO 27003KT 3/4SM BR OVC003 10/10 A2995 RMK AO2 T00980098
KDZB 221235Z AUTO 00000KT 1 1/4SM BR OVC003 10/10 A2993 RMK AO2 T01000098
KDZB 221215Z AUTO 00000KT 1 1/2SM BR OVC003 10/10 A2994 RMK AO2 T00980097
KDZB 221155Z AUTO 00000KT 1 1/2SM BR OVC003 10/10 A2993 RMK AO2 T00980097 10100 20092
KDZB 221135Z AUTO 10005KT 4SM BR OVC003 10/10 A2991 RMK AO2 T00990096
KDZB 221115Z AUTO 00000KT 5SM BR OVC003 10/10 A2994 RMK AO2 T01000097
KDZB 221055Z AUTO 00000KT 5SM BR OVC003 10/10 A2993 RMK AO2 T00980095
KDZB 221035Z AUTO 15004KT 7SM OVC003 10/10 A2993 RMK AO2 T00980095
KDZB 221015Z AUTO 15007G17KT 110V170 5SM BR OVC003 10/09 A2989 RMK AO2 T00960093
KDZB 220955Z AUTO 11010G16KT 7SM OVC003 10/09 A2988 RMK AO2 T00970092
KDZB 220935Z AUTO 10004KT 7SM OVC005 10/09 A2991 RMK AO2 T00960090
KDZB 220915Z AUTO 12004KT 7SM OVC005 10/09 A2993 RMK AO2 T00950087
KDZB 220855Z AUTO 13003KT 7SM BKN005 09/09 A2993 RMK AO2 T00940085
KDZB 220835Z AUTO 13004KT 7SM SCT005 09/08 A2992 RMK AO2 T00930083
KDZB 220815Z AUTO 11004KT 7SM CLR 09/08 A2993 RMK AO2 T00930082
KDZB 220755Z AUTO 13006KT 7SM SCT007 09/08 A2993 RMK AO2 T00930080
KDZB 220735Z AUTO 00000KT 7SM BKN007 BKN031 09/08 A2994 RMK AO2 T00930078
KDZB 220715Z AUTO 12003KT 10SM BKN007 10/08 A2996 RMK AO2 T00950078
KDZB 220655Z AUTO 00000KT 10SM SCT009 10/08 A2996 RMK AO2 T00950077
KDZB 220635Z AUTO 00000KT 10SM SCT009 SCT035 10/08 A2996 RMK AO2 T00950076
KDZB 220615Z AUTO 12003KT 10SM BKN009 OVC035 10/08 A2997 RMK AO2 T00970076
KDZB 220555Z AUTO 00000KT 10SM OVC009 10/08 A2998 RMK AO2 T00970076 10112 20097 401230069
KDZB 220535Z AUTO 09003KT 10SM OVC011 10/08 A2998 RMK AO2 T00980075
KDZB 220515Z AUTO 00000KT 10SM OVC011 10/07 A3000 RMK AO2 T00970073
KDZB 220455Z AUTO 01003KT 10SM OVC011 10/07 A3000 RMK AO2 T00980072
KDZB 220435Z AUTO 08003KT 10SM OVC013 10/07 A2999 RMK AO2 T01000070
KDZB 220415Z AUTO 00000KT 10SM OVC013 10/07 A2998 RMK AO2 T01000070
KDZB 220355Z AUTO 00000KT 10SM OVC013 10/07 A2997 RMK AO2 T01000070
KDZB 220335Z AUTO 00000KT 10SM OVC013 10/07 A2996 RMK AO2 T01010068
KDZB 220315Z AUTO 00000KT 10SM OVC015 10/07 A2996 RMK AO2 T01010067
KDZB 220255Z AUTO 09003KT 10SM OVC017 10/07 A2995 RMK AO2 T01010066
KDZB 220235Z AUTO 08003KT 10SM OVC017 10/07 A2995 RMK AO2 T01020066
KDZB 220215Z AUTO 08003KT 10SM OVC017 10/07 A2993 RMK AO2 T01020065
KDZB 220155Z AUTO 04003KT 10SM OVC017 11/07 A2992 RMK AO2 T01050067
KDZB 220135Z AUTO 08004KT 10SM OVC019 11/07 A2991 RMK AO2 T01050068
KDZB 220115Z AUTO 00000KT 10SM OVC019 11/07 A2990 RMK AO2 T01070069
KDZB 220055Z AUTO 09003KT 10SM OVC019 11/07 A2990 RMK AO2 T01070067
KDZB 220035Z AUTO 11004KT 10SM OVC015 11/07 A2990 RMK AO2 T01100068
KDZB 220015Z AUTO 09003KT 10SM BKN017 OVC022 11/07 A2990 RMK AO2 T01100067
KDZB 212355Z AUTO 09006KT 10SM OVC022 11/07 A2989 RMK AO2 T01120066 10123 20110
KDZB 212335Z AUTO 10005KT 10SM OVC022 12/07 A2988 RMK AO2 T01150066
KDZB 212315Z AUTO 10005KT 10SM OVC024 12/07 A2988 RMK AO2 T01170065
KDZB 212255Z AUTO 09007KT 10SM OVC028 12/06 A2990 RMK AO2 T01200063
KDZB 212235Z AUTO 07005KT 10SM OVC028 12/06 A2989 RMK AO2 T01200061
KDZB 212215Z AUTO 10005KT 10SM OVC030 12/06 A2989 RMK AO2 T01200060
KDZB 212155Z AUTO 11004KT 10SM OVC030 12/06 A2989 RMK AO2 T01200058
KDZB 212135Z AUTO 10004KT 10SM OVC034 12/06 A2990 RMK AO2 T01230058
KDZB 212115Z AUTO 10003KT 10SM OVC034 12/06 A2991 RMK AO2 T01200056
KDZB 212055Z AUTO 09003KT 10SM OVC034 12/05 A2991 RMK AO2 T01170053
KDZB 212035Z AUTO 09005KT 10SM OVC036 12/05 A2991 RMK AO2 T01170050
KDZB 212015Z AUTO 09005KT 10SM OVC038 12/05 A2992 RMK AO2 T01160051
KDZB 211955Z AUTO 07003KT 10SM OVC038 11/05 A2994 RMK AO2 T01140048
KDZB 211935Z AUTO 07004KT 10SM OVC038 12/05 A2994 RMK AO2 T01150049
KDZB 211915Z AUTO 00000KT 10SM OVC038 11/05 A2996 RMK AO2 T01120050
KDZB 211855Z AUTO 00000KT 10SM OVC038 11/05 A2995 RMK AO2 T01100050
KDZB 211835Z AUTO 08004KT 10SM OVC038 11/05 A2995 RMK AO2 T01100048